Time;durP1;ratioP1;P1;durP2;ratioP2;P2;SDS_P1;SDS_P2;PMS_P1;PMS_P2;Temp;Humidity;BMP_temperature;BMP_pressure;BME280_temperature;BME280_humidity;BME280_pressure;Samples;Min_cycle;Max_cycle;Signal;HPM_P1;HPM_P2
2022/06/22 00:00:22;;;;;;;18.13;10.95;;;;;;;;;;5070399;28;20040;-73
2022/06/22 00:02:51;;;;;;;17.40;9.60;;;;;;;;;;5070301;28;20044;-73
2022/06/22 00:05:18;;;;;;;14.60;9.85;;;;;;;;;;5054172;28;20496;-73
2022/06/22 00:07:49;;;;;;;15.95;11.10;;;;;;;;;;5053281;28;20097;-73
2022/06/22 00:10:23;;;;;;;19.15;10.13;;;;;;;;;;5071669;28;20041;-73
2022/06/22 00:12:54;;;;;;;14.80;9.05;;;;;;;;;;5070180;28;20032;-73
2022/06/22 00:15:23;;;;;;;16.77;9.48;;;;;;;;;;5053097;28;20032;-73
2022/06/22 00:17:50;;;;;;;14.93;10.18;;;;;;;;;;5052787;28;20036;-73
2022/06/22 00:20:21;;;;;;;13.25;10.20;;;;;;;;;;5070323;28;20397;-73
2022/06/22 00:22:52;;;;;;;14.00;8.75;;;;;;;;;;5071127;28;20090;-73
2022/06/22 00:25:21;;;;;;;16.00;10.13;;;;;;;;;;5070294;28;20457;-73
2022/06/22 00:27:47;;;;;;;15.18;9.95;;;;;;;;;;5069365;28;20040;-73
2022/06/22 00:30:16;;;;;;;18.10;10.25;;;;;;;;;;5053197;28;20112;-73
2022/06/22 00:33:02;;;;;;;18.60;9.65;;;;;;;;;;5070789;28;20033;-73
2022/06/22 00:35:43;;;;;;;13.93;8.25;;;;;;;;;;5067370;28;20161;-73
2022/06/22 00:38:28;;;;;;;15.30;9.77;;;;;;;;;;5037031;28;20066;-73
2022/06/22 00:40:56;;;;;;;18.38;10.50;;;;;;;;;;5065325;28;20044;-73
2022/06/22 00:43:26;;;;;;;19.67;10.38;;;;;;;;;;5070173;28;20040;-73
2022/06/22 00:45:52;;;;;;;17.33;10.25;;;;;;;;;;5070539;28;20045;-73
2022/06/22 00:48:24;;;;;;;16.20;11.00;;;;;;;;;;5069465;28;20058;-73
2022/06/22 00:50:54;;;;;;;17.48;10.52;;;;;;;;;;5053148;28;20166;-72
2022/06/22 00:53:30;;;;;;;17.13;10.90;;;;;;;;;;5071655;28;20138;-73
2022/06/22 00:56:14;;;;;;;17.20;9.40;;;;;;;;;;5069529;28;20109;-73
2022/06/22 00:58:46;;;;;;;14.02;8.85;;;;;;;;;;5045420;28;20045;-73
2022/06/22 01:01:12;;;;;;;12.55;8.70;;;;;;;;;;5069667;28;20040;-73
2022/06/22 01:03:40;;;;;;;15.15;10.50;;;;;;;;;;5070368;28;20500;-74
2022/06/22 01:06:19;;;;;;;17.55;11.40;;;;;;;;;;5069761;28;20085;-73
2022/06/22 01:08:48;;;;;;;17.88;11.32;;;;;;;;;;5044178;28;20041;-73
2022/06/22 01:14:27;;;;;;;22.10;11.57;;;;;;;;;;5069509;28;20044;-73
2022/06/22 01:16:55;;;;;;;16.73;11.77;;;;;;;;;;5069239;28;20044;-74
2022/06/22 01:19:25;;;;;;;23.42;12.88;;;;;;;;;;5069631;28;20044;-73
2022/06/22 01:21:55;;;;;;;18.73;12.85;;;;;;;;;;5069655;28;20509;-73
2022/06/22 01:24:32;;;;;;;19.58;12.00;;;;;;;;;;5052705;28;20480;-74
2022/06/22 01:27:17;;;;;;;17.55;11.30;;;;;;;;;;5069742;28;20049;-74
2022/06/22 01:29:48;;;;;;;18.08;11.43;;;;;;;;;;5082390;28;20155;-73
2022/06/22 01:32:15;;;;;;;18.25;11.23;;;;;;;;;;5073051;28;20115;-73
2022/06/22 01:34:43;;;;;;;16.25;11.07;;;;;;;;;;5056818;28;20102;-74
2022/06/22 01:37:13;;;;;;;17.40;10.75;;;;;;;;;;5072929;28;20071;-74
2022/06/22 01:39:39;;;;;;;17.17;10.98;;;;;;;;;;5064279;28;20432;-73
2022/06/22 01:42:24;;;;;;;16.90;10.88;;;;;;;;;;5052609;28;20063;-73
2022/06/22 01:45:10;;;;;;;16.85;11.10;;;;;;;;;;5035838;28;20045;-74
2022/06/22 01:47:41;;;;;;;16.50;11.15;;;;;;;;;;5030973;28;20076;-73
2022/06/22 01:50:18;;;;;;;18.13;11.32;;;;;;;;;;5052457;28;20459;-73
2022/06/22 01:52:54;;;;;;;20.08;12.18;;;;;;;;;;5052946;28;20045;-74
2022/06/22 01:55:35;;;;;;;22.52;12.13;;;;;;;;;;5052844;28;20203;-74
2022/06/22 01:58:22;;;;;;;18.58;11.43;;;;;;;;;;5052734;28;20493;-74
2022/06/22 02:00:51;;;;;;;23.70;11.75;;;;;;;;;;5038897;28;20131;-74
2022/06/22 02:03:26;;;;;;;52.47;10.82;;;;;;;;;;5051081;28;20049;-73
2022/06/22 02:06:00;;;;;;;25.98;9.18;;;;;;;;;;5051434;28;20040;-74
2022/06/22 02:08:39;;;;;;;65.32;10.88;;;;;;;;;;5052452;28;20553;-73
2022/06/22 02:11:08;;;;;;;22.05;8.93;;;;;;;;;;5051933;28;20055;-74
2022/06/22 02:13:53;;;;;;;16.35;7.20;;;;;;;;;;5052331;28;20444;-74
2022/06/22 02:16:24;;;;;;;14.13;9.55;;;;;;;;;;5052679;28;20041;-73
2022/06/22 02:18:51;;;;;;;13.00;9.02;;;;;;;;;;5052068;28;20528;-73
2022/06/22 02:21:24;;;;;;;20.17;11.30;;;;;;;;;;5052577;28;20127;-74
2022/06/22 02:23:56;;;;;;;18.55;11.52;;;;;;;;;;5053524;28;20040;-73
2022/06/22 02:26:32;;;;;;;16.00;10.32;;;;;;;;;;5053615;28;20428;-73
2022/06/22 02:28:57;;;;;;;;;;;;;;;;;;5035421;28;20045;-73
2022/06/22 02:31:24;;;;;;;16.65;9.48;;;;;;;;;;5035605;28;19920;-73
2022/06/22 02:33:52;;;;;;;16.33;10.15;;;;;;;;;;5052435;28;20040;-73
2022/06/22 02:36:18;;;;;;;16.08;10.70;;;;;;;;;;5051992;28;20063;-73
2022/06/22 02:38:46;;;;;;;18.17;11.20;;;;;;;;;;5034710;28;20045;-73
2022/06/22 02:46:43;;;;;;;17.40;11.35;;;;;;;;;;5040926;28;20504;-73
2022/06/22 02:49:18;;;;;;;18.77;11.35;;;;;;;;;;5034437;28;20084;-73
2022/06/22 02:51:45;;;;;;;18.33;10.27;;;;;;;;;;5051931;28;20083;-73
2022/06/22 02:54:38;;;;;;;15.43;9.80;;;;;;;;;;5051923;28;20086;-73
2022/06/22 02:57:10;;;;;;;14.27;9.52;;;;;;;;;;5035796;28;20490;-74
2022/06/22 02:59:36;;;;;;;12.45;8.70;;;;;;;;;;5035565;28;20478;-74
2022/06/22 03:02:03;;;;;;;15.95;8.30;;;;;;;;;;5051385;28;20076;-74
2022/06/22 03:04:29;;;;;;;14.25;9.57;;;;;;;;;;5035253;28;20040;-73
2022/06/22 03:06:55;;;;;;;16.15;10.80;;;;;;;;;;5050894;28;20098;-74
2022/06/22 03:09:23;;;;;;;13.45;9.32;;;;;;;;;;5051377;28;20041;-73
2022/06/22 03:11:52;;;;;;;15.18;10.18;;;;;;;;;;5051379;28;20037;-73
2022/06/22 03:14:21;;;;;;;16.20;10.70;;;;;;;;;;5051118;28;20044;-73
2022/06/22 03:16:49;;;;;;;15.10;10.50;;;;;;;;;;5051716;28;20056;-73
2022/06/22 03:19:18;;;;;;;16.75;10.43;;;;;;;;;;5050966;28;20049;-73
2022/06/22 03:21:44;;;;;;;19.83;9.73;;;;;;;;;;5052616;28;20045;-74
2022/06/22 03:24:18;;;;;;;13.80;9.10;;;;;;;;;;5051208;28;20041;-73
2022/06/22 03:26:48;;;;;;;13.93;7.88;;;;;;;;;;5050782;28;20128;-73
2022/06/22 03:29:50;;;;;;;13.60;7.90;;;;;;;;;;5050523;28;20037;-74
2022/06/22 03:32:34;;;;;;;10.13;7.30;;;;;;;;;;5013524;28;20529;-74
2022/06/22 03:35:09;;;;;;;59.25;8.15;;;;;;;;;;5041140;28;20045;-74
2022/06/22 03:37:41;;;;;;;69.40;7.50;;;;;;;;;;5051599;28;20039;-75
2022/06/22 03:40:11;;;;;;;52.67;7.57;;;;;;;;;;5056775;28;20489;-74
2022/06/22 03:42:39;;;;;;;63.50;8.77;;;;;;;;;;5050746;28;20047;-75
2022/06/22 03:45:08;;;;;;;42.15;8.93;;;;;;;;;;5050405;28;20049;-75
2022/06/22 03:47:54;;;;;;;37.88;7.63;;;;;;;;;;5050452;28;20040;-75
2022/06/22 03:50:20;;;;;;;;;;;;;;;;;;5038500;28;20106;-74
2022/06/22 03:52:49;;;;;;;57.10;8.18;;;;;;;;;;5050330;28;20015;-73
2022/06/22 03:55:17;;;;;;;22.17;8.48;;;;;;;;;;5051690;28;20044;-73
2022/06/22 03:57:45;;;;;;;22.27;8.32;;;;;;;;;;5050705;28;20085;-72
2022/06/22 04:00:13;;;;;;;19.52;9.07;;;;;;;;;;5050032;28;20087;-73
2022/06/22 04:02:40;;;;;;;19.38;9.95;;;;;;;;;;5045322;28;20045;-73
2022/06/22 04:05:07;;;;;;;15.05;9.77;;;;;;;;;;5032386;28;20033;-73
2022/06/22 04:07:34;;;;;;;19.30;7.78;;;;;;;;;;5049864;28;20033;-73
2022/06/22 04:10:01;;;;;;;28.85;9.40;;;;;;;;;;5050409;28;20041;-73
2022/06/22 04:12:33;;;;;;;10.05;7.43;;;;;;;;;;5050588;28;20045;-73
2022/06/22 04:15:09;;;;;;;17.15;9.90;;;;;;;;;;5050408;28;20427;-73
2022/06/22 04:17:38;;;;;;;16.02;9.32;;;;;;;;;;5050423;28;20500;-73
2022/06/22 04:20:24;;;;;;;13.90;8.48;;;;;;;;;;5051009;28;20048;-73
2022/06/22 04:22:54;;;;;;;10.93;8.30;;;;;;;;;;5051243;28;20064;-73
2022/06/22 04:25:28;;;;;;;12.60;8.95;;;;;;;;;;5049645;28;20429;-73
2022/06/22 04:27:55;;;;;;;14.55;8.75;;;;;;;;;;5049984;28;20563;-73
2022/06/22 04:30:24;;;;;;;12.60;8.93;;;;;;;;;;5049537;28;20068;-73
2022/06/22 04:32:53;;;;;;;13.05;8.52;;;;;;;;;;5050057;28;20037;-73
2022/06/22 04:35:19;;;;;;;11.65;8.88;;;;;;;;;;5049574;28;20171;-73
2022/06/22 04:37:49;;;;;;;12.23;8.90;;;;;;;;;;5049622;28;20033;-73
2022/06/22 04:40:15;;;;;;;11.20;8.38;;;;;;;;;;5049607;28;20036;-73
2022/06/22 04:42:42;;;;;;;10.35;7.75;;;;;;;;;;5049896;28;20037;-73
2022/06/22 04:45:10;;;;;;;10.85;7.57;;;;;;;;;;5050916;28;20123;-73
2022/06/22 04:47:36;;;;;;;8.80;7.30;;;;;;;;;;5049436;28;20086;-74
2022/06/22 04:50:07;;;;;;;9.73;7.88;;;;;;;;;;5049496;28;20045;-73
2022/06/22 04:52:47;;;;;;;9.70;7.78;;;;;;;;;;5049809;28;20045;-73
2022/06/22 04:55:15;;;;;;;10.65;8.00;;;;;;;;;;5049781;28;20094;-73
2022/06/22 04:57:42;;;;;;;10.73;7.13;;;;;;;;;;5049740;28;20049;-73
2022/06/22 05:00:15;;;;;;;8.98;7.22;;;;;;;;;;5049130;28;20044;-73
2022/06/22 05:02:42;;;;;;;12.07;7.25;;;;;;;;;;5049336;28;20063;-74
2022/06/22 05:05:15;;;;;;;9.80;7.95;;;;;;;;;;5049409;28;20045;-74
2022/06/22 05:07:53;;;;;;;11.30;8.60;;;;;;;;;;5049617;28;20052;-73
2022/06/22 05:10:28;;;;;;;10.93;8.32;;;;;;;;;;5027677;28;20076;-74
2022/06/22 05:12:56;;;;;;;11.77;7.55;;;;;;;;;;5025310;28;20047;-74
2022/06/22 05:15:24;;;;;;;9.52;7.50;;;;;;;;;;5032646;28;20450;-74
2022/06/22 05:17:51;;;;;;;10.93;8.40;;;;;;;;;;5049423;28;20124;-74
2022/06/22 05:20:21;;;;;;;11.77;8.43;;;;;;;;;;5032276;28;20049;-74
2022/06/22 05:22:48;;;;;;;10.95;8.30;;;;;;;;;;5051146;28;20037;-74
2022/06/22 05:25:15;;;;;;;11.75;9.25;;;;;;;;;;5049494;28;20124;-75
2022/06/22 05:27:46;;;;;;;11.13;8.50;;;;;;;;;;5050024;28;20051;-74
2022/06/22 05:30:12;;;;;;;10.75;7.80;;;;;;;;;;5032421;28;20523;-74
2022/06/22 05:32:41;;;;;;;12.95;8.60;;;;;;;;;;5051148;28;20109;-74
2022/06/22 05:35:13;;;;;;;10.52;7.65;;;;;;;;;;5049552;28;20079;-74
2022/06/22 05:37:41;;;;;;;11.00;7.40;;;;;;;;;;5032793;28;20401;-74
2022/06/22 05:40:07;;;;;;;11.35;8.27;;;;;;;;;;5050896;28;20099;-74
2022/06/22 05:42:34;;;;;;;14.73;9.45;;;;;;;;;;5051535;28;20045;-74
2022/06/22 05:45:01;;;;;;;13.18;8.80;;;;;;;;;;5051778;28;20045;-74
2022/06/22 05:47:29;;;;;;;9.32;7.38;;;;;;;;;;5051882;28;20505;-74
2022/06/22 05:50:19;;;;;;;10.63;8.38;;;;;;;;;;5048791;28;20076;-74
2022/06/22 05:52:52;;;;;;;10.40;8.00;;;;;;;;;;5014216;28;20045;-74
2022/06/22 05:55:29;;;;;;;9.50;7.10;;;;;;;;;;5049183;28;20072;-74
2022/06/22 05:58:13;;;;;;;10.57;8.00;;;;;;;;;;5049128;28;20493;-74
2022/06/22 06:00:47;;;;;;;8.68;6.93;;;;;;;;;;5048697;28;20045;-74
2022/06/22 06:03:28;;;;;;;8.80;6.68;;;;;;;;;;5049477;28;20485;-74
2022/06/22 06:06:18;;;;;;;8.35;6.97;;;;;;;;;;5049261;28;20397;-74
2022/06/22 06:08:47;;;;;;;8.40;6.88;;;;;;;;;;5031923;28;20049;-74
2022/06/22 06:11:19;;;;;;;10.02;7.97;;;;;;;;;;5049586;28;20052;-74
2022/06/22 06:13:47;;;;;;;11.38;8.02;;;;;;;;;;5049276;28;20044;-74
2022/06/22 06:16:17;;;;;;;9.23;7.50;;;;;;;;;;5053447;28;20037;-74
2022/06/22 06:18:44;;;;;;;12.25;8.35;;;;;;;;;;5052328;28;20072;-74
2022/06/22 06:21:12;;;;;;;12.48;7.95;;;;;;;;;;5053898;28;20135;-74
2022/06/22 06:24:08;;;;;;;11.57;9.20;;;;;;;;;;5035652;28;20092;-74
2022/06/22 06:29:36;;;;;;;10.80;8.07;;;;;;;;;;5040224;28;20037;-74
2022/06/22 06:32:17;;;;;;;13.48;8.90;;;;;;;;;;5035265;28;20045;-74
2022/06/22 06:34:45;;;;;;;13.23;8.00;;;;;;;;;;5052346;28;20393;-74
2022/06/22 06:37:14;;;;;;;11.45;8.13;;;;;;;;;;5052498;28;20048;-74
2022/06/22 06:39:44;;;;;;;10.40;7.75;;;;;;;;;;5043472;28;20049;-74
2022/06/22 06:42:16;;;;;;;10.02;8.27;;;;;;;;;;5030286;28;20037;-74
2022/06/22 06:44:43;;;;;;;10.95;7.45;;;;;;;;;;5052944;28;20060;-74
2022/06/22 06:47:23;;;;;;;7.93;6.60;;;;;;;;;;5051913;28;20128;-74
2022/06/22 06:49:52;;;;;;;11.35;8.38;;;;;;;;;;5051734;28;20061;-74
2022/06/22 06:52:27;;;;;;;20.30;7.82;;;;;;;;;;5052142;28;20504;-74
2022/06/22 06:54:56;;;;;;;10.63;7.90;;;;;;;;;;5051602;28;20033;-75
2022/06/22 06:57:23;;;;;;;10.65;7.63;;;;;;;;;;5051846;28;20129;-74
2022/06/22 06:59:54;;;;;;;12.40;8.00;;;;;;;;;;5035277;28;20045;-74
2022/06/22 07:02:25;;;;;;;8.70;6.80;;;;;;;;;;5051276;28;20079;-74
2022/06/22 07:04:52;;;;;;;10.27;7.22;;;;;;;;;;5052796;28;20052;-74
2022/06/22 07:07:33;;;;;;;9.88;7.55;;;;;;;;;;5052038;28;20385;-75
2022/06/22 07:10:02;;;;;;;11.13;7.38;;;;;;;;;;5051486;28;20049;-75
2022/06/22 07:12:31;;;;;;;10.65;7.70;;;;;;;;;;5051227;28;20123;-75
2022/06/22 07:14:59;;;;;;;9.80;8.07;;;;;;;;;;5052438;28;20085;-75
2022/06/22 07:17:25;;;;;;;10.00;8.00;;;;;;;;;;5051347;28;20366;-75
2022/06/22 07:20:00;;;;;;;9.23;6.70;;;;;;;;;;5051611;28;20103;-75
2022/06/22 07:22:30;;;;;;;7.50;5.93;;;;;;;;;;5050803;28;20045;-75
2022/06/22 07:25:07;;;;;;;8.30;6.70;;;;;;;;;;5052149;28;20049;-75
2022/06/22 07:27:49;;;;;;;7.75;5.93;;;;;;;;;;5037837;28;20033;-75
2022/06/22 07:30:24;;;;;;;9.02;6.60;;;;;;;;;;5051124;28;20080;-75
2022/06/22 07:33:07;;;;;;;6.75;5.10;;;;;;;;;;5034010;28;20040;-75
2022/06/22 07:35:36;;;;;;;7.22;3.47;;;;;;;;;;5051092;28;20481;-74
2022/06/22 07:38:06;;;;;;;6.03;3.80;;;;;;;;;;5051867;28;20071;-75
2022/06/22 07:40:32;;;;;;;6.20;4.13;;;;;;;;;;5051017;28;20032;-75
2022/06/22 07:43:00;;;;;;;5.07;4.00;;;;;;;;;;5051324;28;20072;-75
2022/06/22 07:45:27;;;;;;;4.88;3.78;;;;;;;;;;5052989;28;20070;-75
2022/06/22 07:47:57;;;;;;;6.73;4.80;;;;;;;;;;5051884;28;20481;-75
2022/06/22 07:50:32;;;;;;;4.97;3.35;;;;;;;;;;5052417;28;20092;-75
2022/06/22 07:53:03;;;;;;;4.72;2.53;;;;;;;;;;5052166;28;20107;-75
2022/06/22 07:55:36;;;;;;;5.65;3.53;;;;;;;;;;5050613;28;20041;-75
2022/06/22 07:58:08;;;;;;;4.38;3.08;;;;;;;;;;5036661;28;20066;-75
2022/06/22 08:00:36;;;;;;;5.45;3.70;;;;;;;;;;5051443;28;20041;-75
2022/06/22 08:03:18;;;;;;;6.28;3.78;;;;;;;;;;5083317;28;20049;-74
2022/06/22 08:05:46;;;;;;;6.82;4.22;;;;;;;;;;5033983;28;20033;-75
2022/06/22 08:08:20;;;;;;;4.22;3.10;;;;;;;;;;5050968;28;20122;-75
2022/06/22 08:10:55;;;;;;;6.30;4.57;;;;;;;;;;5033418;28;20037;-75
2022/06/22 08:13:23;;;;;;;5.85;3.60;;;;;;;;;;5050054;28;20111;-75
2022/06/22 08:15:54;;;;;;;6.70;3.97;;;;;;;;;;5050132;28;20037;-75
2022/06/22 08:18:20;;;;;;;5.50;3.33;;;;;;;;;;5050300;28;20102;-75
2022/06/22 08:20:49;;;;;;;4.50;3.05;;;;;;;;;;5051090;28;20389;-75
2022/06/22 08:23:18;;;;;;;4.65;2.75;;;;;;;;;;5036878;28;20232;-75
2022/06/22 08:25:45;;;;;;;4.57;3.20;;;;;;;;;;5049378;28;20067;-74
2022/06/22 08:28:14;;;;;;;4.40;2.80;;;;;;;;;;5050559;28;20037;-74
2022/06/22 08:30:40;;;;;;;4.68;2.67;;;;;;;;;;5051108;28;20496;-74
2022/06/22 08:33:08;;;;;;;4.13;2.25;;;;;;;;;;5050960;28;20120;-75
2022/06/22 08:35:37;;;;;;;4.65;3.10;;;;;;;;;;5049320;28;20043;-75
2022/06/22 08:38:09;;;;;;;4.75;2.80;;;;;;;;;;5049567;28;20037;-74
2022/06/22 08:40:42;;;;;;;7.95;3.85;;;;;;;;;;5049582;28;20041;-74
2022/06/22 08:43:11;;;;;;;10.25;2.40;;;;;;;;;;5049720;28;20037;-75
2022/06/22 08:45:49;;;;;;;5.03;2.22;;;;;;;;;;5049334;28;20044;-75
2022/06/22 08:48:35;;;;;;;3.65;1.90;;;;;;;;;;5049710;28;20103;-74
2022/06/22 08:51:13;;;;;;;3.47;2.40;;;;;;;;;;5033078;28;20119;-75
2022/06/22 08:53:58;;;;;;;3.22;2.03;;;;;;;;;;5049307;28;20044;-74
2022/06/22 08:56:55;;;;;;;3.55;2.40;;;;;;;;;;5033133;28;20115;-74
2022/06/22 08:59:44;;;;;;;4.63;2.33;;;;;;;;;;5012558;28;20414;-75
2022/06/22 09:02:30;;;;;;;3.55;2.20;;;;;;;;;;5065717;28;20056;-75
2022/06/22 09:05:14;;;;;;;2.88;1.30;;;;;;;;;;5049314;28;20040;-75
2022/06/22 09:08:02;;;;;;;4.90;1.20;;;;;;;;;;5049367;28;20505;-75
2022/06/22 09:10:47;;;;;;;1.90;1.13;;;;;;;;;;5050250;28;20159;-74
2022/06/22 09:13:30;;;;;;;2.85;1.27;;;;;;;;;;5033008;28;20049;-75
2022/06/22 09:16:12;;;;;;;3.03;1.30;;;;;;;;;;5082681;28;20053;-75
2022/06/22 09:18:47;;;;;;;5.90;1.50;;;;;;;;;;5049649;28;20044;-75
2022/06/22 09:21:25;;;;;;;3.15;1.63;;;;;;;;;;5049557;28;20049;-75
2022/06/22 09:24:27;;;;;;;4.45;2.10;;;;;;;;;;5032369;28;20048;-74
2022/06/22 09:27:10;;;;;;;3.47;1.55;;;;;;;;;;5011746;28;20042;-73
2022/06/22 09:29:41;;;;;;;5.15;2.17;;;;;;;;;;5037363;28;20052;-76
2022/06/22 09:32:07;;;;;;;5.00;2.42;;;;;;;;;;5049654;28;20056;-75
2022/06/22 09:34:33;;;;;;;5.20;2.40;;;;;;;;;;5049494;28;20071;-75
2022/06/22 09:37:11;;;;;;;4.18;2.33;;;;;;;;;;5049268;28;20397;-74
2022/06/22 09:40:00;;;;;;;5.20;2.10;;;;;;;;;;5049456;28;20049;-74
2022/06/22 09:42:26;;;;;;;4.80;2.40;;;;;;;;;;5049308;28;20044;-73
2022/06/22 09:45:11;;;;;;;5.05;2.60;;;;;;;;;;5049201;28;20131;-73
2022/06/22 09:47:37;;;;;;;4.60;1.97;;;;;;;;;;5049144;28;20049;-74
2022/06/22 09:50:21;;;;;;;5.05;2.20;;;;;;;;;;5038234;28;20334;-74
2022/06/22 09:53:06;;;;;;;4.78;2.00;;;;;;;;;;5052691;28;20056;-73
2022/06/22 09:58:29;;;;;;;3.72;1.83;;;;;;;;;;5052937;28;20106;-74
2022/06/22 10:01:14;;;;;;;3.72;1.67;;;;;;;;;;5053090;28;20037;-74
2022/06/22 10:03:40;;;;;;;5.70;2.20;;;;;;;;;;5052564;28;20040;-74
2022/06/22 10:06:16;;;;;;;3.58;1.60;;;;;;;;;;5052178;28;20128;-74
2022/06/22 10:08:42;;;;;;;3.25;1.65;;;;;;;;;;5052831;28;20087;-74
2022/06/22 10:11:27;;;;;;;4.60;1.88;;;;;;;;;;5052802;28;20440;-74
2022/06/22 10:14:11;;;;;;;3.70;1.60;;;;;;;;;;5038559;28;20104;-74
2022/06/22 10:16:51;;;;;;;6.13;1.90;;;;;;;;;;5052662;28;20041;-74
2022/06/22 10:19:24;;;;;;;3.67;2.08;;;;;;;;;;5052766;28;20099;-74
2022/06/22 10:22:08;;;;;;;3.75;2.20;;;;;;;;;;5053140;28;20037;-74
2022/06/22 10:24:47;;;;;;;5.68;2.40;;;;;;;;;;5052665;28;20547;-74
2022/06/22 10:27:20;;;;;;;5.75;2.38;;;;;;;;;;5035915;28;20044;-74
2022/06/22 10:29:52;;;;;;;4.20;2.00;;;;;;;;;;5052249;28;20124;-74
2022/06/22 10:32:30;;;;;;;5.60;2.25;;;;;;;;;;5051983;28;20045;-74
2022/06/22 10:35:15;;;;;;;4.82;2.15;;;;;;;;;;5053368;28;20037;-74
2022/06/22 10:37:41;;;;;;;3.45;1.60;;;;;;;;;;5038428;28;20033;-74
2022/06/22 10:46:37;;;;;;;5.65;2.00;;;;;;;;;;5038885;28;20086;-74
2022/06/22 10:49:11;;;;;;;4.72;2.40;;;;;;;;;;5051350;28;20053;-74
2022/06/22 10:51:54;;;;;;;3.53;1.60;;;;;;;;;;5053379;28;20037;-74
2022/06/22 10:54:36;;;;;;;4.15;1.88;;;;;;;;;;5051521;28;20068;-74
2022/06/22 10:57:08;;;;;;;3.60;1.65;;;;;;;;;;5051768;28;20037;-74
2022/06/22 10:59:34;;;;;;;2.97;1.70;;;;;;;;;;5051120;28;20079;-74
2022/06/22 11:02:16;;;;;;;3.20;1.80;;;;;;;;;;5052695;28;20385;-74
2022/06/22 11:04:45;;;;;;;8.63;2.03;;;;;;;;;;5051214;28;20037;-74
2022/06/22 11:07:28;;;;;;;3.55;1.80;;;;;;;;;;5052890;28;20365;-74
2022/06/22 11:10:11;;;;;;;4.50;1.90;;;;;;;;;;5051125;28;20072;-74
2022/06/22 11:12:43;;;;;;;5.03;1.75;;;;;;;;;;5052960;28;20448;-74
2022/06/22 11:15:28;;;;;;;3.88;1.90;;;;;;;;;;5051216;28;20128;-74
2022/06/22 11:17:57;;;;;;;4.10;2.10;;;;;;;;;;5051305;28;20076;-74
2022/06/22 11:20:33;;;;;;;4.38;1.85;;;;;;;;;;5051421;28;20452;-74
2022/06/22 11:23:05;;;;;;;4.70;2.10;;;;;;;;;;5034401;28;20033;-74
2022/06/22 11:31:41;;;;;;;6.10;2.10;;;;;;;;;;4994264;28;20050;-74
2022/06/22 11:34:19;;;;;;;6.43;1.88;;;;;;;;;;5026347;28;20610;-74
2022/06/22 11:37:04;;;;;;;4.70;2.05;;;;;;;;;;5063937;28;20053;-74
2022/06/22 11:39:37;;;;;;;3.80;1.85;;;;;;;;;;5038551;28;20037;-74
2022/06/22 11:42:18;;;;;;;4.03;1.98;;;;;;;;;;5050476;28;20037;-74
2022/06/22 11:47:49;;;;;;;5.53;1.75;;;;;;;;;;5050972;28;20080;-74
2022/06/22 11:50:23;;;;;;;3.78;1.70;;;;;;;;;;5083629;28;20045;-74
2022/06/22 11:52:52;;;;;;;3.67;1.75;;;;;;;;;;5050691;28;20084;-75
2022/06/22 11:55:28;;;;;;;4.93;2.30;;;;;;;;;;5033838;28;20128;-75
2022/06/22 11:57:54;;;;;;;;;;;;;;;;;;5051506;28;20379;-74
2022/06/22 12:00:36;;;;;;;4.00;1.70;;;;;;;;;;5050371;28;19995;-74
2022/06/22 12:03:02;;;;;;;4.68;1.80;;;;;;;;;;5036283;28;20387;-74
2022/06/22 12:05:28;;;;;;;5.45;1.92;;;;;;;;;;5052057;28;20028;-74
2022/06/22 12:08:13;;;;;;;3.40;1.90;;;;;;;;;;5050876;28;20041;-74
2022/06/22 12:10:46;;;;;;;3.55;1.70;;;;;;;;;;5039385;28;20497;-74
2022/06/22 12:13:12;;;;;;;5.70;1.88;;;;;;;;;;5032849;28;20045;-74
2022/06/22 12:15:38;;;;;;;3.85;1.90;;;;;;;;;;5084225;28;20481;-74
2022/06/22 12:18:08;;;;;;;6.32;2.00;;;;;;;;;;5050300;28;20112;-74
2022/06/22 12:20:53;;;;;;;4.18;1.88;;;;;;;;;;5033411;28;20044;-74
2022/06/22 12:23:29;;;;;;;4.78;2.10;;;;;;;;;;5049915;28;20123;-74
2022/06/22 12:26:01;;;;;;;4.13;2.00;;;;;;;;;;5037842;28;20128;-74
2022/06/22 12:28:27;;;;;;;3.97;1.67;;;;;;;;;;5050402;28;20059;-74
2022/06/22 12:31:00;;;;;;;4.22;2.10;;;;;;;;;;5050064;28;20119;-74
2022/06/22 12:33:36;;;;;;;3.92;1.85;;;;;;;;;;5049892;28;20040;-74
2022/06/22 12:36:07;;;;;;;5.15;2.28;;;;;;;;;;5051829;28;20094;-74
2022/06/22 12:38:42;;;;;;;4.72;2.10;;;;;;;;;;5033521;28;20076;-74
2022/06/22 12:41:27;;;;;;;7.78;2.63;;;;;;;;;;5036380;28;20519;-74
2022/06/22 12:44:04;;;;;;;5.65;2.08;;;;;;;;;;5050264;28;20048;-74
2022/06/22 12:46:36;;;;;;;5.10;2.25;;;;;;;;;;5051202;28;20048;-74
2022/06/22 12:49:17;;;;;;;5.30;2.40;;;;;;;;;;5049408;28;20071;-74
2022/06/22 12:51:49;;;;;;;4.13;2.17;;;;;;;;;;5050007;28;20044;-74
2022/06/22 12:54:24;;;;;;;5.15;2.30;;;;;;;;;;5050722;28;20037;-74
2022/06/22 12:57:05;;;;;;;5.10;2.40;;;;;;;;;;5035668;28;20045;-74
2022/06/22 12:59:36;;;;;;;7.40;2.60;;;;;;;;;;5033273;28;20056;-74
2022/06/22 13:02:10;;;;;;;4.28;2.20;;;;;;;;;;5050285;28;20497;-74
2022/06/22 13:04:37;;;;;;;5.25;2.05;;;;;;;;;;5049507;28;20044;-74
2022/06/22 13:07:18;;;;;;;5.80;2.13;;;;;;;;;;5049808;28;20053;-74
2022/06/22 13:09:44;;;;;;;4.10;2.00;;;;;;;;;;5050908;28;20127;-74
2022/06/22 13:12:16;;;;;;;5.22;2.08;;;;;;;;;;5049415;28;20044;-74
2022/06/22 13:14:52;;;;;;;4.07;2.38;;;;;;;;;;5049731;28;20518;-74
2022/06/22 13:17:23;;;;;;;4.32;2.03;;;;;;;;;;5032556;28;20094;-74
2022/06/22 13:19:49;;;;;;;4.60;2.20;;;;;;;;;;5049663;28;20041;-74
2022/06/22 13:22:21;;;;;;;3.22;1.80;;;;;;;;;;5049283;28;20120;-74
2022/06/22 13:24:54;;;;;;;4.15;2.20;;;;;;;;;;5052830;28;20045;-74
2022/06/22 13:27:20;;;;;;;4.13;2.00;;;;;;;;;;5036592;28;20055;-74
2022/06/22 13:29:53;;;;;;;4.47;2.42;;;;;;;;;;5054794;28;20125;-74
2022/06/22 13:32:19;;;;;;;3.97;2.38;;;;;;;;;;5053192;28;20037;-74
2022/06/22 13:34:51;;;;;;;7.30;2.30;;;;;;;;;;5054904;28;20126;-74
2022/06/22 13:37:36;;;;;;;3.67;1.85;;;;;;;;;;5054101;28;20543;-74
2022/06/22 13:40:02;;;;;;;7.70;2.10;;;;;;;;;;5053340;28;20060;-75
2022/06/22 13:42:38;;;;;;;5.93;2.13;;;;;;;;;;5052984;28;20041;-74
2022/06/22 13:45:04;;;;;;;3.83;1.92;;;;;;;;;;5054662;28;20134;-75
2022/06/22 13:47:33;;;;;;;5.60;1.80;;;;;;;;;;5052552;28;20037;-74
2022/06/22 13:50:20;;;;;;;7.82;2.00;;;;;;;;;;5053021;28;20122;-74
2022/06/22 13:52:47;;;;;;;3.97;2.03;;;;;;;;;;5036704;28;20041;-74
2022/06/22 13:55:19;;;;;;;4.75;1.63;;;;;;;;;;5052770;28;20045;-74
2022/06/22 13:57:45;;;;;;;3.80;1.70;;;;;;;;;;5053093;28;20037;-74
2022/06/22 14:00:15;;;;;;;3.88;1.77;;;;;;;;;;5052948;28;20045;-74
2022/06/22 14:02:58;;;;;;;3.88;1.95;;;;;;;;;;5053356;28;20099;-74
2022/06/22 14:05:44;;;;;;;4.40;1.95;;;;;;;;;;5052909;28;20041;-74
2022/06/22 14:08:29;;;;;;;4.95;2.28;;;;;;;;;;5053445;28;20444;-74
2022/06/22 14:11:07;;;;;;;4.60;1.88;;;;;;;;;;5036818;28;20079;-74
2022/06/22 14:13:33;;;;;;;3.08;1.48;;;;;;;;;;5053834;28;20382;-74
2022/06/22 14:15:59;;;;;;;6.68;2.10;;;;;;;;;;5086472;28;20056;-75
2022/06/22 14:18:37;;;;;;;3.95;2.00;;;;;;;;;;5054051;28;20049;-75
2022/06/22 14:21:06;;;;;;;4.63;1.90;;;;;;;;;;5052785;28;20049;-75
2022/06/22 14:23:35;;;;;;;3.38;1.80;;;;;;;;;;5052115;28;20134;-75
2022/06/22 14:26:20;;;;;;;5.22;2.10;;;;;;;;;;5035807;28;20048;-75
2022/06/22 14:28:50;;;;;;;3.83;2.08;;;;;;;;;;5052976;28;20098;-75
2022/06/22 14:31:44;;;;;;;4.40;2.08;;;;;;;;;;5075575;28;20045;-74
2022/06/22 14:34:13;;;;;;;4.43;2.10;;;;;;;;;;5034661;28;20048;-74
2022/06/22 14:36:41;;;;;;;3.13;1.90;;;;;;;;;;5053192;28;20051;-75
2022/06/22 14:39:07;;;;;;;3.95;1.80;;;;;;;;;;5052273;28;20051;-74
2022/06/22 14:41:37;;;;;;;7.65;2.05;;;;;;;;;;5051575;28;20076;-74
2022/06/22 14:44:11;;;;;;;6.85;2.00;;;;;;;;;;5051986;28;20049;-74
2022/06/22 14:46:56;;;;;;;4.32;2.03;;;;;;;;;;5053297;28;20045;-74
2022/06/22 14:49:25;;;;;;;6.53;2.08;;;;;;;;;;5051428;28;20131;-74
2022/06/22 14:52:00;;;;;;;7.35;2.35;;;;;;;;;;5052444;28;20367;-74
2022/06/22 14:54:33;;;;;;;4.72;2.00;;;;;;;;;;5052059;28;20041;-74
2022/06/22 14:57:05;;;;;;;4.05;1.90;;;;;;;;;;5052186;28;20037;-74
2022/06/22 14:59:41;;;;;;;4.10;2.08;;;;;;;;;;5053104;28;20049;-74
2022/06/22 15:02:07;;;;;;;3.85;2.08;;;;;;;;;;5039528;28;20051;-74
2022/06/22 15:04:40;;;;;;;7.03;2.35;;;;;;;;;;5051664;28;20037;-75
2022/06/22 15:07:26;;;;;;;4.10;2.30;;;;;;;;;;5053173;28;20074;-74
2022/06/22 15:09:56;;;;;;;7.55;2.30;;;;;;;;;;5052807;28;20080;-74
2022/06/22 15:15:36;;;;;;;4.20;2.38;;;;;;;;;;5051636;28;20075;-74
2022/06/22 15:18:05;;;;;;;4.80;2.33;;;;;;;;;;5051883;28;20048;-74
2022/06/22 15:20:40;;;;;;;5.30;2.17;;;;;;;;;;5036717;28;20045;-74
2022/06/22 15:23:12;;;;;;;7.93;2.30;;;;;;;;;;5053033;28;20044;-75
2022/06/22 15:25:43;;;;;;;6.65;2.25;;;;;;;;;;5034201;28;20043;-75
2022/06/22 15:28:20;;;;;;;4.68;2.40;;;;;;;;;;5052147;28;20112;-75
2022/06/22 15:30:50;;;;;;;4.32;2.47;;;;;;;;;;5050664;28;20120;-75
2022/06/22 15:33:18;;;;;;;4.55;2.25;;;;;;;;;;5051154;28;20041;-75
2022/06/22 15:36:01;;;;;;;6.53;2.78;;;;;;;;;;5050583;28;20124;-75
2022/06/22 15:38:40;;;;;;;4.38;2.13;;;;;;;;;;5050945;28;20040;-74
2022/06/22 15:41:28;;;;;;;5.97;2.30;;;;;;;;;;5035481;28;20041;-75
2022/06/22 15:43:54;;;;;;;9.13;2.40;;;;;;;;;;5050508;28;20041;-75